Time;durP1;ratioP1;P1;durP2;ratioP2;P2;SDS_P1;SDS_P2;PMS_P1;PMS_P2;Temp;Humidity;BMP_temperature;BMP_pressure;BME280_temperature;BME280_humidity;BME280_pressure;Samples;Min_cycle;Max_cycle;Signal;HPM_P1;HPM_P2
2022/10/23 04:02:12;;;;;;;12.13;1.80;;;;;;;;;;5201407;23;20506;-79
2022/10/23 04:04:38;;;;;;;1.60;1.10;;;7.80;96.30;;;;;;5032771;28;20890;-79
2022/10/23 04:07:04;;;;;;;2.87;1.20;;;;;;;;;;5031896;28;20411;-78
2022/10/23 04:09:30;;;;;;;4.17;1.23;;;;;;;;;;5014643;28;20783;-78
2022/10/23 04:11:56;;;;;;;2.30;1.43;;;;;;;;;;5032462;28;20427;-80
2022/10/23 04:14:21;;;;;;;4.13;1.30;;;7.90;96.30;;;;;;5033104;28;20491;-80
2022/10/23 04:16:47;;;;;;;2.50;1.30;;;7.90;96.30;;;;;;5047201;28;20414;-80
2022/10/23 04:19:13;;;;;;;4.30;1.60;;;7.90;96.30;;;;;;5030921;28;20223;-80
2022/10/23 04:29:28;;;;;;;2.40;1.23;;;;;;;;;;5187025;23;21065;-78
2022/10/23 04:31:53;;;;;;;6.70;1.67;;;7.80;96.30;;;;;;5014346;28;20522;-79
2022/10/23 04:34:19;;;;;;;3.97;1.30;;;7.80;96.30;;;;;;5032201;28;20497;-79
2022/10/23 04:36:45;;;;;;;3.30;1.30;;;;;;;;;;5031734;28;20578;-80
2022/10/23 04:39:11;;;;;;;3.67;1.30;;;;;;;;;;5014407;28;20208;-78
2022/10/23 04:41:40;;;;;;;1.63;1.40;;;;;;;;;;5032145;28;20580;-79
2022/10/23 04:44:06;;;;;;;2.90;1.30;;;7.80;96.30;;;;;;5032217;28;20429;-79
2022/10/23 04:46:32;;;;;;;2.00;1.70;;;;;;;;;;5031996;28;20418;-80
2022/10/23 04:48:57;;;;;;;4.40;1.37;;;7.70;96.30;;;;;;5031598;28;20411;-79
2022/10/23 04:51:23;;;;;;;10.33;1.40;;;;;;;;;;5032029;28;20466;-79
2022/10/23 04:53:49;;;;;;;3.50;1.73;;;;;;;;;;5014356;28;20219;-78
2022/10/23 04:56:15;;;;;;;2.03;1.30;;;;;;;;;;5032005;28;20414;-78
2022/10/23 04:58:41;;;;;;;3.67;1.47;;;7.50;96.30;;;;;;5013744;28;20192;-79
2022/10/23 05:01:09;;;;;;;2.50;1.30;;;;;;;;;;5031923;28;20431;-79
2022/10/23 05:03:36;;;;;;;1.70;1.20;;;7.40;96.30;;;;;;5014219;28;20208;-79
2022/10/23 05:06:02;;;;;;;3.00;1.23;;;;;;;;;;5014248;28;20472;-79
2022/10/23 05:08:28;;;;;;;6.10;1.27;;;;;;;;;;5013733;28;20399;-79
2022/10/23 05:10:54;;;;;;;7.87;1.30;;;;;;;;;;5031799;28;20915;-78
2022/10/23 05:13:20;;;;;;;2.57;1.10;;;;;;;;;;5031865;28;20403;-79
2022/10/23 05:15:47;;;;;;;4.47;1.07;;;7.70;96.30;;;;;;5031853;28;20403;-79
2022/10/23 05:18:16;;;;;;;4.93;1.30;;;;;;;;;;5031282;28;20403;-79
2022/10/23 05:20:43;;;;;;;3.40;1.30;;;7.40;96.30;;;;;;5031659;28;20462;-79
2022/10/23 05:23:10;;;;;;;5.27;1.37;;;7.30;96.30;;;;;;5031706;28;20415;-78
2022/10/23 05:25:36;;;;;;;7.80;1.30;;;7.20;96.30;;;;;;5031808;28;20415;-79
2022/10/23 05:28:02;;;;;;;1.77;1.20;;;7.30;96.30;;;;;;5031085;28;20433;-79
2022/10/23 05:30:27;;;;;;;7.20;2.10;;;7.30;96.30;;;;;;5013890;28;20215;-79
2022/10/23 05:32:53;;;;;;;4.67;2.90;;;7.30;96.30;;;;;;5034983;28;20184;-80
2022/10/23 05:35:21;;;;;;;4.50;2.40;;;7.30;96.30;;;;;;5017607;28;20271;-80
2022/10/23 05:37:50;;;;;;;3.43;2.17;;;7.20;96.30;;;;;;5005420;28;20429;-79
2022/10/23 05:40:16;;;;;;;4.10;1.57;;;7.30;96.30;;;;;;5029380;28;20456;-78
2022/10/23 05:42:42;;;;;;;5.30;2.00;;;7.30;96.30;;;;;;5015510;28;20507;-79
2022/10/23 05:45:08;;;;;;;6.27;3.77;;;7.20;96.30;;;;;;5008377;28;20179;-79
2022/10/23 05:47:33;;;;;;;12.70;5.97;;;7.20;96.30;;;;;;5034666;28;20169;-78
2022/10/23 05:49:59;;;;;;;12.97;7.00;;;;;;;;;;5035162;28;20415;-78
2022/10/23 05:52:25;;;;;;;9.73;6.10;;;7.30;96.30;;;;;;5034669;28;20200;-79
2022/10/23 05:54:51;;;;;;;5.53;3.83;;;7.40;96.30;;;;;;5015355;28;20503;-78
2022/10/23 05:57:17;;;;;;;6.23;2.80;;;7.50;96.30;;;;;;5014770;28;20640;-78
2022/10/23 05:59:43;;;;;;;5.33;3.53;;;;;;;;;;4997803;28;20244;-78
2022/10/23 06:02:08;;;;;;;3.10;2.43;;;7.70;96.30;;;;;;5015513;28;20526;-79
2022/10/23 06:04:34;;;;;;;4.23;2.30;;;7.80;96.30;;;;;;4997715;28;20546;-79
2022/10/23 06:07:00;;;;;;;3.23;2.23;;;8.00;96.30;;;;;;5014889;28;20540;-79
2022/10/23 06:09:26;;;;;;;4.20;2.33;;;8.40;96.30;;;;;;5015123;28;20532;-79
2022/10/23 06:11:52;;;;;;;4.27;3.13;;;8.90;96.30;;;;;;4997046;28;20979;-79
2022/10/23 06:14:17;;;;;;;2.80;2.60;;;9.20;96.30;;;;;;5014922;28;20176;-79
2022/10/23 06:16:43;;;;;;;9.40;2.37;;;9.50;96.30;;;;;;4996951;28;20185;-81
2022/10/23 06:19:10;;;;;;;2.73;1.60;;;9.50;96.30;;;;;;5014669;28;20189;-80
2022/10/23 06:21:37;;;;;;;3.70;1.40;;;9.60;96.30;;;;;;5014779;28;20193;-78
2022/10/23 06:24:03;;;;;;;2.47;1.30;;;9.70;96.30;;;;;;5014782;28;20499;-79
2022/10/23 06:26:29;;;;;;;6.40;1.60;;;9.90;96.30;;;;;;4997164;28;20514;-79
2022/10/23 06:28:55;;;;;;;2.43;1.00;;;10.20;96.30;;;;;;4996534;28;20954;-78
2022/10/23 06:31:25;;;;;;;4.30;1.20;;;10.70;96.30;;;;;;5021113;28;20275;-79
2022/10/23 06:33:51;;;;;;;5.17;1.63;;;;;;;;;;5034399;28;20469;-78
2022/10/23 06:36:16;;;;;;;8.77;1.40;;;12.50;96.30;;;;;;5008823;28;20423;-78
2022/10/23 06:38:42;;;;;;;3.50;1.40;;;13.60;96.30;;;;;;5015785;28;20199;-78
2022/10/23 06:41:14;;;;;;;7.40;2.00;;;14.30;96.30;;;;;;5033998;28;20196;-78
2022/10/23 06:43:40;;;;;;;8.40;1.33;;;14.40;96.30;;;;;;5033895;28;20245;-80
2022/10/23 06:46:05;;;;;;;3.40;2.07;;;14.70;96.30;;;;;;5009794;28;20446;-81
2022/10/23 06:48:31;;;;;;;5.50;1.43;;;14.40;96.30;;;;;;5029608;28;20416;-80
2022/10/23 06:50:58;;;;;;;4.23;1.00;;;13.80;96.30;;;;;;5015270;28;20330;-81
2022/10/23 06:53:24;;;;;;;2.10;0.87;;;;;;;;;;5021287;28;20173;-80
2022/10/23 06:55:50;;;;;;;4.07;1.43;;;12.10;96.30;;;;;;5035582;28;20410;-74
2022/10/23 06:58:16;;;;;;;2.30;1.40;;;11.50;96.30;;;;;;5018046;28;20514;-80
2022/10/23 07:00:43;;;;;;;4.53;1.40;;;11.00;96.30;;;;;;5022379;28;20472;-80
2022/10/23 07:03:09;;;;;;;2.43;1.47;;;10.60;96.30;;;;;;5015879;28;20762;-78
2022/10/23 07:05:34;;;;;;;1.83;1.40;;;10.40;96.30;;;;;;5014184;28;20499;-79
2022/10/23 07:08:00;;;;;;;6.40;1.90;;;10.30;96.30;;;;;;5015164;28;20180;-79
2022/10/23 07:10:26;;;;;;;4.30;1.73;;;10.30;96.30;;;;;;5000192;28;20427;-80
2022/10/23 07:12:51;;;;;;;6.00;1.20;;;10.30;96.30;;;;;;5014672;28;20187;-78
2022/10/23 07:15:17;;;;;;;6.70;1.53;;;10.30;96.30;;;;;;4997349;28;20625;-78
2022/10/23 07:17:42;;;;;;;6.60;2.00;;;10.30;96.30;;;;;;5014566;28;20264;-79
2022/10/23 07:20:09;;;;;;;5.53;2.47;;;;;;;;;;4996817;28;20587;-79
2022/10/23 07:22:34;;;;;;;5.57;1.93;;;10.50;96.30;;;;;;5006856;28;20747;-79
2022/10/23 07:24:59;;;;;;;2.00;1.50;;;10.60;96.30;;;;;;5033396;28;20530;-78
2022/10/23 07:27:25;;;;;;;4.70;1.90;;;10.70;96.30;;;;;;5032842;28;20229;-78
2022/10/23 07:29:51;;;;;;;2.53;1.87;;;10.80;96.30;;;;;;5016419;28;20199;-78
2022/10/23 07:32:17;;;;;;;3.37;1.93;;;10.90;96.30;;;;;;5035729;28;20199;-79
2022/10/23 07:34:43;;;;;;;6.73;2.00;;;11.00;96.30;;;;;;5019405;28;20415;-79
2022/10/23 07:37:09;;;;;;;3.67;1.60;;;11.20;96.30;;;;;;5035132;28;20407;-79
2022/10/23 07:39:34;;;;;;;5.70;1.90;;;11.30;96.30;;;;;;5035829;28;20254;-79
2022/10/23 07:42:00;;;;;;;4.40;1.30;;;11.60;96.30;;;;;;5038335;28;20196;-80
2022/10/23 07:44:25;;;;;;;3.20;1.30;;;11.80;96.30;;;;;;5019167;28;20173;-79
2022/10/23 07:46:51;;;;;;;5.93;1.40;;;11.90;96.30;;;;;;5036504;28;20196;-80
2022/10/23 07:49:17;;;;;;;6.40;1.50;;;12.10;96.30;;;;;;5019256;28;20176;-80
2022/10/23 07:51:43;;;;;;;3.07;1.83;;;12.30;96.30;;;;;;5036747;28;20253;-81
2022/10/23 07:54:11;;;;;;;2.50;1.20;;;12.30;96.30;;;;;;5029629;28;20962;-79
2022/10/23 07:56:37;;;;;;;2.07;1.43;;;;;;;;;;5019618;28;20172;-79
2022/10/23 07:59:02;;;;;;;2.20;1.10;;;12.50;96.30;;;;;;5021061;28;20542;-79
2022/10/23 08:01:32;;;;;;;3.93;1.43;;;12.60;96.30;;;;;;5009404;28;20442;-79
2022/10/23 08:03:58;;;;;;;3.27;1.17;;;;;;;;;;5026771;28;20172;-79
2022/10/23 08:06:24;;;;;;;3.77;1.53;;;;;;;;;;5005668;28;20405;-78
2022/10/23 08:08:50;;;;;;;1.30;1.10;;;13.00;96.30;;;;;;5019544;28;20925;-78
2022/10/23 08:11:23;;;;;;;2.10;1.10;;;13.20;96.30;;;;;;5025153;28;20713;-77
2022/10/23 08:13:49;;;;;;;2.43;1.40;;;13.30;96.30;;;;;;5032678;28;20653;-78
2022/10/23 08:16:15;;;;;;;7.83;1.20;;;13.50;96.30;;;;;;5031746;28;20502;-78
2022/10/23 08:18:41;;;;;;;3.17;1.20;;;13.60;96.30;;;;;;5031275;28;20506;-78
2022/10/23 08:21:07;;;;;;;3.13;1.30;;;13.70;96.30;;;;;;5026335;28;20200;-78
2022/10/23 08:23:33;;;;;;;3.60;2.00;;;;;;;;;;4994914;28;20499;-78
2022/10/23 08:26:00;;;;;;;5.23;2.07;;;13.70;96.30;;;;;;5012765;28;20173;-78
2022/10/23 08:28:27;;;;;;;4.70;1.90;;;13.60;96.30;;;;;;5011812;28;20196;-77
2022/10/23 08:30:53;;;;;;;7.50;1.93;;;13.70;96.30;;;;;;5012625;28;20428;-77
2022/10/23 08:33:18;;;;;;;2.37;1.63;;;13.80;96.30;;;;;;5012359;28;20461;-78
2022/10/23 08:35:44;;;;;;;1.63;1.33;;;14.00;96.30;;;;;;4995065;28;20447;-78
2022/10/23 08:38:10;;;;;;;2.50;1.40;;;14.20;96.30;;;;;;4994125;28;20180;-77
2022/10/23 08:40:36;;;;;;;1.40;1.03;;;14.30;96.30;;;;;;5012344;28;20220;-78
2022/10/23 08:43:10;;;;;;;3.30;1.10;;;14.60;96.30;;;;;;5012404;28;20195;-77
2022/10/23 08:45:43;;;;;;;3.27;1.40;;;14.80;96.30;;;;;;5012274;28;20203;-77
2022/10/23 08:48:30;;;;;;;2.80;1.20;;;15.10;96.30;;;;;;4994263;28;20434;-77
2022/10/23 08:51:03;;;;;;;3.30;1.40;;;15.30;96.30;;;;;;4994649;28;20447;-77
2022/10/23 08:53:37;;;;;;;7.37;4.67;;;15.50;96.30;;;;;;5019105;28;20908;-77
2022/10/23 08:56:17;;;;;;;2.60;1.67;;;15.50;96.30;;;;;;5013846;28;20429;-77
2022/10/23 08:58:49;;;;;;;6.47;1.47;;;15.70;96.30;;;;;;5013184;28;20554;-77
2022/10/23 09:01:29;;;;;;;2.13;1.80;;;15.70;96.30;;;;;;5031591;28;20459;-77
2022/10/23 09:03:56;;;;;;;2.33;1.07;;;15.80;96.30;;;;;;5031861;28;20580;-77
2022/10/23 09:06:39;;;;;;;2.60;1.40;;;15.90;96.30;;;;;;5032926;28;20422;-77
2022/10/23 09:09:29;;;;;;;3.93;1.53;;;16.00;96.30;;;;;;5035263;28;20415;-77
2022/10/23 09:12:16;;;;;;;2.20;1.40;;;16.20;96.30;;;;;;5035670;28;20509;-77
2022/10/23 09:15:37;;;;;;;4.50;1.20;;;16.20;96.30;;;;;;5035838;28;20858;-77
2022/10/23 09:18:15;;;;;;;2.43;1.40;;;16.20;96.30;;;;;;4935419;29;20427;-77
2022/10/23 09:20:43;;;;;;;5.03;2.03;;;16.20;96.30;;;;;;5022281;28;21089;-77
2022/10/23 09:23:23;;;;;;;1.93;1.67;;;16.20;96.30;;;;;;5017704;28;20423;-77
2022/10/23 09:25:54;;;;;;;4.27;1.47;;;16.40;96.30;;;;;;5035606;28;20762;-77
2022/10/23 09:28:39;;;;;;;4.10;1.40;;;16.50;96.30;;;;;;5034671;28;20442;-77
2022/10/23 09:31:11;;;;;;;2.70;1.10;;;16.70;96.30;;;;;;5033409;28;20481;-76
2022/10/23 09:33:36;;;;;;;5.63;1.30;;;17.00;96.30;;;;;;5035290;28;20831;-77
2022/10/23 09:36:05;;;;;;;3.50;2.00;;;16.90;96.30;;;;;;5008381;28;20435;-77
2022/10/23 09:38:45;;;;;;;6.00;4.00;;;16.90;96.30;;;;;;5024936;28;20211;-77
2022/10/23 09:41:36;;;;;;;9.23;5.07;;;16.90;96.30;;;;;;5019107;28;20451;-77
2022/10/23 09:44:21;;;;;;;5.23;3.00;;;17.10;96.30;;;;;;5015398;28;20407;-77
2022/10/23 09:46:57;;;;;;;5.20;1.93;;;17.20;96.30;;;;;;5014748;28;20416;-77
2022/10/23 09:49:29;;;;;;;2.90;1.47;;;17.30;96.30;;;;;;5053869;28;20893;-77
2022/10/23 09:52:00;;;;;;;2.27;1.73;;;17.30;96.30;;;;;;5054719;28;20499;-77
2022/10/23 09:54:28;;;;;;;8.03;1.60;;;17.20;96.30;;;;;;5054896;28;20773;-77
2022/10/23 09:56:56;;;;;;;3.20;1.60;;;17.10;96.30;;;;;;5043059;28;21148;-78
2022/10/23 09:59:26;;;;;;;5.10;1.97;;;17.30;96.30;;;;;;5017051;28;20497;-78
2022/10/23 10:01:55;;;;;;;4.30;2.67;;;18.00;96.30;;;;;;5044031;28;20430;-78
2022/10/23 10:04:32;;;;;;;2.63;1.53;;;18.70;96.30;;;;;;5050341;28;20414;-78
2022/10/23 10:07:00;;;;;;;4.70;1.50;;;19.30;96.30;;;;;;5054079;28;20844;-78
2022/10/23 10:09:26;;;;;;;3.23;1.83;;;19.90;96.30;;;;;;5054594;28;20433;-78
2022/10/23 10:11:58;;;;;;;2.70;1.30;;;20.20;96.30;;;;;;5054409;28;20836;-78
2022/10/23 10:14:56;;;;;;;1.97;1.20;;;20.00;96.30;;;;;;5036006;28;20670;-78
2022/10/23 10:17:54;;;;;;;7.27;2.10;;;20.10;96.30;;;;;;5013477;28;20420;-78
2022/10/23 10:20:39;;;;;;;1.70;1.30;;;;;;;;;;5014966;28;20557;-77
2022/10/23 10:23:32;;;;;;;2.30;1.40;;;20.50;96.30;;;;;;5014717;28;20488;-78
2022/10/23 10:26:06;;;;;;;6.63;1.70;;;;;;;;;;5014515;28;20431;-78
2022/10/23 10:28:49;;;;;;;1.70;1.37;;;20.70;96.30;;;;;;5014924;28;20427;-76
2022/10/23 10:34:09;;;;;;;3.77;1.40;;;;;;;;;;5846578;23;20558;-76
2022/10/23 10:36:40;;;;;;;1.20;1.00;;;20.70;96.30;;;;;;5015907;28;20779;-78
2022/10/23 10:39:37;;;;;;;1.60;1.10;;;;;;;;;;5033373;28;20455;-78
2022/10/23 10:42:13;;;;;;;2.20;0.80;;;;;;;;;;4946734;28;20848;-77
2022/10/23 10:44:49;;;;;;;6.93;1.13;;;20.00;96.30;;;;;;5009176;28;20507;-78
2022/10/23 10:47:28;;;;;;;1.67;0.80;;;19.80;96.30;;;;;;4984481;28;20928;-77
2022/10/23 10:50:06;;;;;;;5.47;1.73;;;19.40;96.30;;;;;;5003999;28;20474;-78
2022/10/23 10:52:42;;;;;;;1.60;0.80;;;;;;;;;;4979104;28;20440;-78
2022/10/23 10:55:29;;;;;;;2.00;0.60;;;19.10;96.30;;;;;;5001797;28;20420;-78
2022/10/23 10:58:05;;;;;;;2.10;0.80;;;;;;;;;;5011257;28;20423;-78
2022/10/23 11:00:34;;;;;;;1.83;0.90;;;18.90;96.30;;;;;;4996117;28;20519;-77
2022/10/23 11:03:38;;;;;;;2.20;0.90;;;18.90;96.30;;;;;;4995030;28;21821;-78
2022/10/23 11:06:05;;;;;;;1.70;0.73;;;;;;;;;;5010925;28;20473;-78
2022/10/23 11:08:34;;;;;;;1.30;0.80;;;;;;;;;;4995295;28;20420;-78
2022/10/23 11:11:10;;;;;;;1.93;0.90;;;18.90;96.30;;;;;;5012504;28;20448;-78
2022/10/23 11:13:39;;;;;;;3.37;2.20;;;19.00;96.30;;;;;;5012775;28;20408;-78
2022/10/23 11:16:17;;;;;;;2.33;0.83;;;;;;;;;;5013109;28;20419;-78
2022/10/23 11:18:46;;;;;;;8.60;1.07;;;;;;;;;;5010824;28;20404;-78
2022/10/23 11:21:31;;;;;;;2.43;1.10;;;19.20;96.30;;;;;;5014371;28;20440;-79
2022/10/23 11:24:03;;;;;;;1.30;0.93;;;;;;;;;;5010438;28;20502;-79
2022/10/23 11:26:45;;;;;;;2.03;1.07;;;19.00;96.30;;;;;;5014122;28;20487;-79
2022/10/23 11:29:17;;;;;;;2.30;0.90;;;;;;;;;;5014777;28;20414;-79
2022/10/23 11:32:01;;;;;;;1.53;1.00;;;;;;;;;;5014102;28;20428;-79
2022/10/23 11:34:58;;;;;;;2.53;1.10;;;18.80;96.30;;;;;;5008377;28;20460;-78
2022/10/23 11:37:25;;;;;;;2.60;1.10;;;;;;;;;;4995530;28;21000;-78
2022/10/23 11:40:06;;;;;;;1.90;0.97;;;;;;;;;;4996016;28;20460;-80
2022/10/23 11:42:44;;;;;;;12.50;1.63;;;;;;;;;;5013234;28;20436;-82
2022/10/23 11:45:35;;;;;;;1.83;0.97;;;18.90;96.30;;;;;;5017524;28;20406;-82
2022/10/23 11:48:02;;;;;;;7.23;1.07;;;18.90;96.30;;;;;;5008628;28;20421;-80
2022/10/23 11:50:53;;;;;;;1.10;0.90;;;18.70;96.30;;;;;;4998573;28;20436;-80
2022/10/23 11:53:31;;;;;;;1.80;0.90;;;18.60;96.30;;;;;;4976066;28;20421;-78
2022/10/23 11:56:00;;;;;;;1.83;0.83;;;;;;;;;;5013213;28;20432;-79
2022/10/23 11:58:39;;;;;;;1.63;0.90;;;18.70;96.30;;;;;;5012645;28;20411;-78
2022/10/23 12:01:14;;;;;;;2.30;1.13;;;;;;;;;;5013671;28;20513;-79
2022/10/23 12:04:02;;;;;;;1.40;0.90;;;18.60;96.30;;;;;;5013320;28;20450;-78
2022/10/23 12:06:31;;;;;;;3.90;1.00;;;18.50;96.30;;;;;;5012789;28;20396;-78
2022/10/23 12:09:07;;;;;;;1.83;1.00;;;18.30;96.30;;;;;;5012267;28;20404;-78
2022/10/23 12:11:41;;;;;;;3.23;1.10;;;18.30;96.30;;;;;;5013348;28;20510;-78
2022/10/23 12:14:25;;;;;;;2.80;1.00;;;18.30;96.30;;;;;;5012457;28;20487;-78
2022/10/23 12:16:50;;;;;;;1.63;0.90;;;18.20;96.30;;;;;;5011664;28;20408;-78
2022/10/23 12:19:21;;;;;;;1.50;0.87;;;;;;;;;;5012347;28;20866;-79
2022/10/23 12:21:50;;;;;;;1.00;0.70;;;18.00;96.30;;;;;;5012453;28;20228;-77
2022/10/23 12:24:38;;;;;;;1.00;0.70;;;18.10;96.30;;;;;;5012265;28;20405;-78
2022/10/23 12:27:07;;;;;;;1.30;0.80;;;;;;;;;;4994038;28;20438;-78
2022/10/23 12:30:12;;;;;;;4.90;0.93;;;17.80;96.30;;;;;;4994834;28;20506;-78
2022/10/23 12:33:01;;;;;;;5.80;2.20;;;17.80;96.30;;;;;;4990017;28;20564;-78
2022/10/23 12:35:46;;;;;;;2.70;0.80;;;;;;;;;;4992706;28;20920;-79
2022/10/23 12:38:23;;;;;;;1.83;1.17;;;;;;;;;;4974754;28;20425;-80
2022/10/23 12:41:16;;;;;;;2.40;1.00;;;17.80;96.30;;;;;;4991792;28;20959;-80
2022/10/23 12:43:48;;;;;;;6.17;1.40;;;17.90;96.30;;;;;;4992553;28;20435;-79
2022/10/23 12:46:14;;;;;;;3.47;1.00;;;;;;;;;;5012108;28;20501;-80
2022/10/23 12:48:48;;;;;;;4.63;1.60;;;18.10;96.30;;;;;;5011383;28;20880;-80
2022/10/23 12:51:21;;;;;;;1.20;0.80;;;17.90;96.30;;;;;;5012241;28;20272;-79
2022/10/23 12:53:50;;;;;;;2.87;1.00;;;17.90;96.30;;;;;;4994554;28;20435;-80
2022/10/23 12:56:16;;;;;;;3.40;0.90;;;;;;;;;;4994605;28;20512;-79
2022/10/23 12:58:59;;;;;;;2.13;1.10;;;17.60;96.30;;;;;;5011552;28;20459;-78
2022/10/23 13:01:28;;;;;;;2.60;1.03;;;17.50;96.30;;;;;;5012030;28;20852;-78
2022/10/23 13:03:59;;;;;;;3.10;1.30;;;;;;;;;;4994765;28;20841;-78
2022/10/23 13:06:25;;;;;;;2.47;1.00;;;17.60;96.30;;;;;;4994706;28;20420;-78
2022/10/23 13:08:51;;;;;;;2.60;1.10;;;17.50;96.30;;;;;;4993464;28;20423;-79
2022/10/23 13:11:20;;;;;;;4.90;1.10;;;17.60;96.30;;;;;;5011826;28;20435;-79
2022/10/23 13:13:48;;;;;;;3.10;1.37;;;17.50;96.30;;;;;;4988698;28;20814;-78
2022/10/23 13:16:16;;;;;;;3.00;1.10;;;17.30;96.30;;;;;;4981413;28;20436;-78
2022/10/23 13:18:41;;;;;;;2.80;0.90;;;17.20;96.30;;;;;;4986383;28;20549;-78
2022/10/23 13:21:12;;;;;;;3.60;1.57;;;;;;;;;;4994181;28;20534;-79
2022/10/23 13:23:40;;;;;;;3.10;1.00;;;;;;;;;;4994267;28;20157;-79
2022/10/23 13:26:29;;;;;;;2.60;1.10;;;17.00;96.30;;;;;;5010382;28;20416;-79
2022/10/23 13:28:56;;;;;;;2.87;2.20;;;17.00;96.30;;;;;;4990074;28;20428;-78
2022/10/23 13:31:28;;;;;;;9.13;5.93;;;17.00;96.30;;;;;;4992360;28;20440;-79
2022/10/23 13:34:00;;;;;;;2.10;1.40;;;16.90;96.30;;;;;;5011753;28;20431;-78
2022/10/23 13:36:28;;;;;;;2.07;1.13;;;16.90;96.30;;;;;;4989713;28;20437;-77
2022/10/23 13:39:13;;;;;;;3.47;1.70;;;16.90;96.30;;;;;;4991637;28;20413;-78
2022/10/23 13:41:44;;;;;;;2.87;1.90;;;16.80;96.30;;;;;;4991982;28;20440;-78
2022/10/23 13:44:11;;;;;;;3.37;2.43;;;;;;;;;;4981409;28;20448;-78
2022/10/23 13:46:37;;;;;;;3.10;1.40;;;;;;;;;;4991817;28;20401;-78
2022/10/23 13:49:03;;;;;;;2.53;1.67;;;;;;;;;;4991807;28;20415;-77
2022/10/23 13:51:30;;;;;;;7.90;2.60;;;;;;;;;;4991963;28;20432;-78
2022/10/23 13:53:56;;;;;;;3.47;2.10;;;;;;;;;;4995023;28;20177;-78
2022/10/23 13:56:24;;;;;;;6.00;3.63;;;16.50;96.30;;;;;;4995582;28;20455;-78
2022/10/23 13:58:50;;;;;;;2.40;2.20;;;16.60;96.30;;;;;;4994878;28;20421;-78
2022/10/23 14:01:21;;;;;;;2.90;1.60;;;16.50;96.30;;;;;;4977967;28;20421;-79
2022/10/23 14:03:48;;;;;;;3.60;1.20;;;16.40;96.30;;;;;;5011174;28;20579;-78
2022/10/23 14:06:13;;;;;;;2.90;1.77;;;16.40;96.30;;;;;;5014789;28;20764;-79
2022/10/23 14:08:39;;;;;;;7.40;1.70;;;;;;;;;;5013733;28;20490;-78
2022/10/23 14:11:05;;;;;;;2.40;1.40;;;16.40;96.30;;;;;;5014413;28;20681;-79
2022/10/23 14:13:31;;;;;;;3.60;1.90;;;;;;;;;;4997422;28;20469;-79
2022/10/23 14:15:57;;;;;;;4.50;1.83;;;;;;;;;;4997691;28;20189;-78
2022/10/23 14:18:23;;;;;;;4.03;2.20;;;;;;;;;;5013380;28;20454;-78
2022/10/23 14:20:49;;;;;;;5.87;3.50;;;;;;;;;;5015238;28;20463;-78
2022/10/23 14:23:15;;;;;;;4.23;2.80;;;;;;;;;;5014418;28;20749;-78
2022/10/23 14:25:41;;;;;;;2.87;2.50;;;16.40;96.30;;;;;;4996833;28;20419;-78
2022/10/23 14:28:06;;;;;;;4.03;1.20;;;16.40;96.30;;;;;;4996364;28;20187;-78
2022/10/23 14:30:34;;;;;;;2.57;1.67;;;16.30;96.30;;;;;;5014461;28;20183;-77
2022/10/23 14:33:00;;;;;;;2.87;2.10;;;;;;;;;;4996646;28;20643;-79
2022/10/23 14:35:26;;;;;;;7.53;4.90;;;;;;;;;;5014226;28;20507;-78
2022/10/23 14:37:52;;;;;;;2.77;2.00;;;;;;;;;;4996162;28;20177;-78
2022/10/23 14:40:17;;;;;;;2.30;1.70;;;16.00;96.30;;;;;;5014027;28;20466;-79
2022/10/23 14:42:43;;;;;;;3.50;2.33;;;15.90;96.30;;;;;;5014090;28;20181;-78
2022/10/23 14:45:09;;;;;;;3.30;2.50;;;15.90;96.30;;;;;;5014188;28;20173;-78
2022/10/23 14:47:34;;;;;;;5.30;4.20;;;15.80;96.30;;;;;;5012857;28;20177;-79
2022/10/23 14:50:00;;;;;;;3.53;2.60;;;;;;;;;;4996038;28;20219;-79
2022/10/23 14:52:26;;;;;;;4.07;2.27;;;;;;;;;;5010173;28;20195;-80
2022/10/23 14:54:52;;;;;;;2.50;2.03;;;15.60;96.30;;;;;;5001155;28;20182;-78
2022/10/23 14:57:20;;;;;;;2.93;1.97;;;15.60;96.30;;;;;;5002448;28;20182;-77
2022/10/23 14:59:46;;;;;;;2.97;1.53;;;15.50;96.30;;;;;;5010427;28;20200;-78
2022/10/23 15:02:12;;;;;;;3.67;2.00;;;;;;;;;;5003885;28;21006;-79
2022/10/23 15:04:38;;;;;;;5.80;2.50;;;15.40;96.30;;;;;;5003857;28;20423;-78
2022/10/23 15:07:04;;;;;;;7.33;1.60;;;;;;;;;;5007957;28;20427;-78
2022/10/23 15:09:33;;;;;;;2.13;1.87;;;;;;;;;;5012097;28;20416;-78
2022/10/23 15:11:59;;;;;;;4.40;2.07;;;15.30;96.30;;;;;;5013385;28;20572;-78
2022/10/23 15:14:25;;;;;;;3.80;2.37;;;;;;;;;;5002815;28;20519;-77
2022/10/23 15:16:51;;;;;;;4.20;1.90;;;15.00;96.30;;;;;;5013293;28;20180;-78
2022/10/23 15:19:16;;;;;;;2.70;1.90;;;15.00;96.30;;;;;;5013463;28;20259;-79
2022/10/23 15:21:42;;;;;;;5.93;2.77;;;;;;;;;;5013527;28;20193;-78
2022/10/23 15:24:08;;;;;;;3.30;2.17;;;;;;;;;;5013652;28;20173;-78
2022/10/23 15:26:34;;;;;;;9.60;3.73;;;14.90;96.30;;;;;;5013314;28;20227;-79
2022/10/23 15:29:01;;;;;;;33.10;18.00;;;14.90;96.30;;;;;;4995302;28;20416;-79
2022/10/23 15:31:29;;;;;;;3.23;2.90;;;;;;;;;;5013381;28;20220;-77
2022/10/23 15:33:58;;;;;;;3.97;2.60;;;14.80;96.30;;;;;;4995567;28;20431;-76
2022/10/23 15:36:25;;;;;;;10.80;2.37;;;;;;;;;;5019574;23;20412;-78
2022/10/23 15:38:51;;;;;;;4.33;2.57;;;;;;;;;;5011081;28;20485;-78
2022/10/23 15:41:25;;;;;;;3.97;2.93;;;14.70;96.30;;;;;;5011430;28;20424;-77
2022/10/23 15:43:51;;;;;;;3.73;2.50;;;;;;;;;;4994509;28;20443;-77
2022/10/23 15:46:17;;;;;;;6.13;3.40;;;14.70;96.30;;;;;;5012472;28;20443;-78
2022/10/23 15:48:43;;;;;;;5.50;4.03;;;;;;;;;;5007376;28;20188;-80
2022/10/23 15:59:08;;;;;;;8.27;5.33;;;14.60;96.30;;;;;;5295640;23;20483;-79
2022/10/23 16:01:33;;;;;;;8.93;5.10;;;14.50;96.30;;;;;;5016280;28;20821;-78
2022/10/23 16:03:59;;;;;;;4.37;2.77;;;14.50;96.30;;;;;;5020507;28;20200;-78
2022/10/23 16:06:25;;;;;;;7.37;4.43;;;;;;;;;;5030565;28;20642;-79
2022/10/23 16:08:50;;;;;;;3.23;2.57;;;14.40;96.30;;;;;;5030782;28;20283;-78
2022/10/23 16:11:24;;;;;;;8.37;3.37;;;;;;;;;;5030923;28;20450;-80
2022/10/23 16:13:50;;;;;;;5.60;3.10;;;14.40;96.30;;;;;;5026015;28;20211;-79
2022/10/23 16:16:16;;;;;;;8.73;4.87;;;14.30;96.30;;;;;;5031474;28;20505;-80
2022/10/23 16:18:43;;;;;;;9.60;5.30;;;14.30;96.30;;;;;;5032269;28;20187;-80
2022/10/23 16:21:15;;;;;;;7.70;4.97;;;;;;;;;;5031088;28;20858;-79
2022/10/23 16:23:40;;;;;;;5.73;4.20;;;14.20;96.30;;;;;;5031106;28;20863;-79
2022/10/23 16:26:06;;;;;;;7.47;4.00;;;;;;;;;;5033373;28;20421;-81
2022/10/23 16:28:32;;;;;;;7.10;4.00;;;;;;;;;;5032186;28;20176;-81
2022/10/23 16:30:58;;;;;;;4.87;3.70;;;;;;;;;;5015257;28;20899;-83
2022/10/23 16:33:24;;;;;;;6.73;4.07;;;;;;;;;;5033053;28;20402;-81
2022/10/23 16:35:50;;;;;;;3.40;3.07;;;;;;;;;;5028059;28;20488;-82
2022/10/23 16:38:16;;;;;;;8.50;3.77;;;;;;;;;;5014619;28;20411;-80
2022/10/23 16:40:49;;;;;;;7.50;3.00;;;14.00;96.30;;;;;;5031467;28;20670;-79
2022/10/23 16:43:15;;;;;;;5.73;2.43;;;;;;;;;;5014590;28;20176;-78
2022/10/23 16:45:41;;;;;;;8.33;2.83;;;;;;;;;;5030824;28;20449;-79
2022/10/23 16:48:07;;;;;;;3.80;3.10;;;;;;;;;;5016321;28;20757;-79
2022/10/23 16:50:33;;;;;;;5.57;4.23;;;;;;;;;;5012446;28;20180;-79
2022/10/23 16:52:59;;;;;;;30.77;22.63;;;;;;;;;;5013761;28;20423;-79
2022/10/23 16:55:25;;;;;;;64.13;52.53;;;;;;;;;;5026155;28;20177;-79
2022/10/23 16:57:51;;;;;;;11.93;9.50;;;;;;;;;;5019952;28;20259;-79
2022/10/23 17:00:20;;;;;;;5.60;3.87;;;;;;;;;;4995759;28;20259;-80
2022/10/23 17:02:46;;;;;;;10.33;4.20;;;13.80;96.30;;;;;;4997457;28;20416;-79
2022/10/23 17:05:11;;;;;;;9.90;3.50;;;13.90;96.30;;;;;;5010805;28;20430;-82
2022/10/23 17:07:37;;;;;;;6.80;4.27;;;;;;;;;;5036646;28;20191;-82
2022/10/23 17:10:03;;;;;;;5.03;3.73;;;;;;;;;;5020002;28;20157;-82
2022/10/23 17:12:29;;;;;;;6.60;4.73;;;;;;;;;;5037371;28;20189;-81
2022/10/23 17:14:55;;;;;;;11.27;5.50;;;13.80;96.30;;;;;;5020882;28;20423;-82
2022/10/23 17:17:20;;;;;;;10.27;6.07;;;13.80;96.30;;;;;;5029170;28;20640;-78
2022/10/23 17:19:46;;;;;;;11.80;7.13;;;13.80;96.30;;;;;;5013746;28;20549;-79
2022/10/23 17:22:12;;;;;;;8.63;6.07;;;13.70;96.30;;;;;;5021435;28;20714;-78
2022/10/23 17:24:39;;;;;;;8.10;4.80;;;13.60;96.30;;;;;;5012468;28;20260;-78
2022/10/23 17:27:05;;;;;;;6.73;3.10;;;;;;;;;;5022261;28;20492;-79
2022/10/23 17:29:31;;;;;;;8.13;5.90;;;13.70;96.30;;;;;;5039859;28;20446;-80
2022/10/23 17:31:56;;;;;;;10.50;5.37;;;13.70;96.30;;;;;;5057298;28;20437;-79
2022/10/23 17:34:22;;;;;;;6.47;3.97;;;13.80;96.30;;;;;;5039263;28;20175;-80
2022/10/23 17:36:51;;;;;;;10.80;4.10;;;13.60;96.30;;;;;;5058247;28;20176;-80
2022/10/23 17:39:20;;;;;;;6.00;4.40;;;13.60;96.30;;;;;;5039190;28;20461;-80
2022/10/23 17:41:46;;;;;;;5.20;3.70;;;13.60;96.30;;;;;;5039461;28;20452;-80
2022/10/23 17:44:12;;;;;;;13.40;5.67;;;;;;;;;;5025064;28;20509;-80
2022/10/23 17:46:38;;;;;;;4.80;3.00;;;;;;;;;;5036266;28;20438;-80
2022/10/23 17:49:04;;;;;;;7.63;4.10;;;13.40;96.30;;;;;;5018971;28;20415;-80
2022/10/23 17:51:31;;;;;;;5.80;3.40;;;;;;;;;;5035772;28;20430;-80
2022/10/23 17:54:01;;;;;;;8.63;4.93;;;13.50;96.30;;;;;;5035928;28;20411;-79
2022/10/23 17:56:28;;;;;;;4.90;3.53;;;13.40;96.30;;;;;;5034306;28;20899;-80